sensor_id;sensor_type;location;lat;lon;timestamp;pressure;altitude;pressure_sealevel;temperature;humidity
20145;BME280;10233;50.814;6.590;2022-08-01T00:00:52;100251.25;;;22.23;100.00
20145;BME280;10233;50.814;6.590;2022-08-01T00:01:53;100248.28;;;22.25;100.00
20145;BME280;10233;50.814;6.590;2022-08-01T00:02:53;100252.13;;;22.14;100.00
20145;BME280;10233;50.814;6.590;2022-08-01T00:03:54;100245.06;;;22.18;100.00
20145;BME280;10233;50.814;6.590;2022-08-01T00:04:54;100245.88;;;22.18;100.00
20145;BME280;10233;50.814;6.590;2022-08-01T00:05:55;100253.97;;;22.23;100.00
20145;BME280;10233;50.814;6.590;2022-08-01T00:06:55;100244.53;;;22.16;100.00
20145;BME280;10233;50.814;6.590;2022-08-01T00:07:56;100246.19;;;22.12;100.00
20145;BME280;10233;50.814;6.590;2022-08-01T00:08:57;100248.06;;;22.11;100.00
20145;BME280;10233;50.814;6.590;2022-08-01T00:09:57;100246.41;;;22.20;100.00
20145;BME280;10233;50.814;6.590;2022-08-01T00:10:58;100241.53;;;22.17;100.00
20145;BME280;10233;50.814;6.590;2022-08-01T00:11:58;100246.16;;;22.17;100.00
20145;BME280;10233;50.814;6.590;2022-08-01T00:12:59;100241.06;;;22.05;100.00
20145;BME280;10233;50.814;6.590;2022-08-01T00:13:59;100247.56;;;22.09;100.00
20145;BME280;10233;50.814;6.590;2022-08-01T00:15:00;100238.84;;;22.12;100.00
20145;BME280;10233;50.814;6.590;2022-08-01T00:16:01;100242.13;;;22.09;100.00
20145;BME280;10233;50.814;6.590;2022-08-01T00:17:01;100245.09;;;22.13;100.00
20145;BME280;10233;50.814;6.590;2022-08-01T00:18:02;100252.41;;;22.12;100.00
20145;BME280;10233;50.814;6.590;2022-08-01T00:19:02;100244.28;;;22.12;100.00
20145;BME280;10233;50.814;6.590;2022-08-01T00:20:05;100250.25;;;22.09;100.00
20145;BME280;10233;50.814;6.590;2022-08-01T00:21:06;100241.03;;;22.10;100.00
20145;BME280;10233;50.814;6.590;2022-08-01T00:22:07;100249.72;;;22.02;100.00
20145;BME280;10233;50.814;6.590;2022-08-01T00:23:07;100244.59;;;22.01;100.00
20145;BME280;10233;50.814;6.590;2022-08-01T00:24:08;100246.50;;;22.00;100.00
20145;BME280;10233;50.814;6.590;2022-08-01T00:25:08;100247.59;;;21.89;100.00
20145;BME280;10233;50.814;6.590;2022-08-01T00:26:09;100245.22;;;21.83;100.00
20145;BME280;10233;50.814;6.590;2022-08-01T00:27:09;100253.56;;;21.91;100.00
20145;BME280;10233;50.814;6.590;2022-08-01T00:28:10;100253.00;;;21.94;100.00
20145;BME280;10233;50.814;6.590;2022-08-01T00:29:11;100256.53;;;21.95;100.00
20145;BME280;10233;50.814;6.590;2022-08-01T00:30:11;100248.13;;;22.01;100.00
20145;BME280;10233;50.814;6.590;2022-08-01T00:31:12;100246.75;;;22.04;100.00
20145;BME280;10233;50.814;6.590;2022-08-01T00:32:12;100247.56;;;21.99;100.00
20145;BME280;10233;50.814;6.590;2022-08-01T00:33:13;100245.72;;;21.90;100.00
20145;BME280;10233;50.814;6.590;2022-08-01T00:34:13;100251.66;;;21.87;100.00
20145;BME280;10233;50.814;6.590;2022-08-01T00:35:13;100257.38;;;21.85;100.00
20145;BME280;10233;50.814;6.590;2022-08-01T00:36:14;100252.25;;;21.84;100.00
20145;BME280;10233;50.814;6.590;2022-08-01T00:37:15;100253.03;;;21.84;100.00
20145;BME280;10233;50.814;6.590;2022-08-01T00:38:15;100254.13;;;21.83;100.00
20145;BME280;10233;50.814;6.590;2022-08-01T00:39:16;100257.41;;;21.80;100.00
20145;BME280;10233;50.814;6.590;2022-08-01T00:40:16;100256.06;;;21.73;100.00
20145;BME280;10233;50.814;6.590;2022-08-01T00:41:17;100252.25;;;21.74;100.00
20145;BME280;10233;50.814;6.590;2022-08-01T00:42:18;100251.72;;;21.72;100.00
20145;BME280;10233;50.814;6.590;2022-08-01T00:43:19;100252.53;;;21.77;100.00
20145;BME280;10233;50.814;6.590;2022-08-01T00:44:19;100243.88;;;21.75;100.00
20145;BME280;10233;50.814;6.590;2022-08-01T00:45:20;100247.63;;;21.79;100.00
20145;BME280;10233;50.814;6.590;2022-08-01T00:46:20;100250.09;;;21.76;100.00
20145;BME280;10233;50.814;6.590;2022-08-01T00:47:21;100251.44;;;21.73;100.00
20145;BME280;10233;50.814;6.590;2022-08-01T00:48:21;100250.91;;;21.71;100.00
20145;BME280;10233;50.814;6.590;2022-08-01T00:49:22;100243.56;;;21.67;100.00
20145;BME280;10233;50.814;6.590;2022-08-01T00:50:23;100256.59;;;21.65;100.00
20145;BME280;10233;50.814;6.590;2022-08-01T00:51:24;100246.84;;;21.64;100.00
20145;BME280;10233;50.814;6.590;2022-08-01T00:52:25;100255.50;;;21.56;100.00
20145;BME280;10233;50.814;6.590;2022-08-01T00:53:25;100257.13;;;21.57;100.00
20145;BME280;10233;50.814;6.590;2022-08-01T00:54:27;100254.44;;;21.47;100.00
20145;BME280;10233;50.814;6.590;2022-08-01T00:55:28;100250.94;;;21.51;100.00
20145;BME280;10233;50.814;6.590;2022-08-01T00:56:28;100248.22;;;21.46;100.00
20145;BME280;10233;50.814;6.590;2022-08-01T00:57:29;100246.31;;;21.37;100.00
20145;BME280;10233;50.814;6.590;2022-08-01T00:58:30;100250.13;;;21.41;100.00
20145;BME280;10233;50.814;6.590;2022-08-01T00:59:33;100249.59;;;21.39;100.00
20145;BME280;10233;50.814;6.590;2022-08-01T01:00:35;100250.38;;;21.39;100.00
20145;BME280;10233;50.814;6.590;2022-08-01T01:01:35;100251.47;;;21.33;100.00
20145;BME280;10233;50.814;6.590;2022-08-01T01:02:36;100244.19;;;21.29;100.00
20145;BME280;10233;50.814;6.590;2022-08-01T01:03:36;100246.59;;;21.35;100.00
20145;BME280;10233;50.814;6.590;2022-08-01T01:04:37;100249.84;;;21.37;100.00
20145;BME280;10233;50.814;6.590;2022-08-01T01:05:48;100250.94;;;21.36;100.00
20145;BME280;10233;50.814;6.590;2022-08-01T01:07:21;100246.06;;;21.33;100.00
20145;BME280;10233;50.814;6.590;2022-08-01T01:08:30;100247.94;;;21.38;100.00
20145;BME280;10233;50.814;6.590;2022-08-01T01:10:43;100256.34;;;21.26;100.00
20145;BME280;10233;50.814;6.590;2022-08-01T01:14:10;100249.31;;;21.25;100.00
20145;BME280;10233;50.814;6.590;2022-08-01T01:16:18;100260.13;;;21.30;100.00
20145;BME280;10233;50.814;6.590;2022-08-01T01:17:26;100261.75;;;21.26;100.00
20145;BME280;10233;50.814;6.590;2022-08-01T01:18:34;100257.44;;;21.25;100.00
20145;BME280;10233;50.814;6.590;2022-08-01T01:19:40;100256.38;;;21.31;100.00
20145;BME280;10233;50.814;6.590;2022-08-01T01:21:02;100255.53;;;21.36;100.00
20145;BME280;10233;50.814;6.590;2022-08-01T01:22:22;100252.81;;;21.41;100.00
20145;BME280;10233;50.814;6.590;2022-08-01T01:28:00;100259.03;;;21.21;100.00
20145;BME280;10233;50.814;6.590;2022-08-01T01:29:11;100259.03;;;21.16;100.00
20145;BME280;10233;50.814;6.590;2022-08-01T01:30:13;100266.09;;;21.17;100.00
20145;BME280;10233;50.814;6.590;2022-08-01T01:31:15;100264.19;;;21.18;100.00
20145;BME280;10233;50.814;6.590;2022-08-01T01:33:39;100258.78;;;21.23;100.00
20145;BME280;10233;50.814;6.590;2022-08-01T01:34:43;100263.41;;;21.07;100.00
20145;BME280;10233;50.814;6.590;2022-08-01T01:35:47;100262.31;;;21.13;100.00
20145;BME280;10233;50.814;6.590;2022-08-01T01:36:52;100259.03;;;21.11;100.00
20145;BME280;10233;50.814;6.590;2022-08-01T01:38:04;100260.41;;;21.09;100.00
20145;BME280;10233;50.814;6.590;2022-08-01T01:39:06;100261.75;;;21.11;100.00
20145;BME280;10233;50.814;6.590;2022-08-01T01:40:09;100257.69;;;21.09;100.00
20145;BME280;10233;50.814;6.590;2022-08-01T01:41:11;100259.59;;;21.08;100.00
20145;BME280;10233;50.814;6.590;2022-08-01T01:42:13;100261.22;;;21.09;100.00
20145;BME280;10233;50.814;6.590;2022-08-01T01:43:16;100263.09;;;21.09;100.00
20145;BME280;10233;50.814;6.590;2022-08-01T01:44:18;100262.84;;;21.10;100.00
20145;BME280;10233;50.814;6.590;2022-08-01T01:45:19;100262.56;;;21.17;100.00
20145;BME280;10233;50.814;6.590;2022-08-01T01:46:24;100264.44;;;21.11;100.00
20145;BME280;10233;50.814;6.590;2022-08-01T01:47:27;100265.28;;;21.12;100.00
20145;BME280;10233;50.814;6.590;2022-08-01T01:48:28;100263.94;;;21.09;100.00
20145;BME280;10233;50.814;6.590;2022-08-01T01:49:30;100264.19;;;21.13;100.00
20145;BME280;10233;50.814;6.590;2022-08-01T01:50:32;100265.53;;;21.15;100.00
20145;BME280;10233;50.814;6.590;2022-08-01T01:51:33;100265.53;;;21.15;100.00
20145;BME280;10233;50.814;6.590;2022-08-01T01:52:34;100269.88;;;21.16;100.00
20145;BME280;10233;50.814;6.590;2022-08-01T01:53:35;100266.63;;;21.19;100.00
20145;BME280;10233;50.814;6.590;2022-08-01T01:54:39;100268.81;;;21.17;100.00
20145;BME280;10233;50.814;6.590;2022-08-01T01:55:43;100263.94;;;21.14;100.00
20145;BME280;10233;50.814;6.590;2022-08-01T01:56:45;100267.47;;;21.20;100.00
20145;BME280;10233;50.814;6.590;2022-08-01T01:57:50;100267.72;;;21.18;100.00
20145;BME280;10233;50.814;6.590;2022-08-01T01:58:53;100264.75;;;21.20;100.00
20145;BME280;10233;50.814;6.590;2022-08-01T01:59:56;100270.16;;;21.20;100.00
20145;BME280;10233;50.814;6.590;2022-08-01T02:00:59;100264.19;;;21.23;100.00
20145;BME280;10233;50.814;6.590;2022-08-01T02:02:04;100258.78;;;21.23;100.00
20145;BME280;10233;50.814;6.590;2022-08-01T02:03:07;100257.97;;;21.22;100.00
20145;BME280;10233;50.814;6.590;2022-08-01T02:04:09;100263.66;;;21.26;100.00
20145;BME280;10233;50.814;6.590;2022-08-01T02:05:13;100261.22;;;21.24;100.00
20145;BME280;10233;50.814;6.590;2022-08-01T02:06:15;100257.72;;;21.29;100.00
20145;BME280;10233;50.814;6.590;2022-08-01T02:07:22;100256.06;;;21.18;100.00
20145;BME280;10233;50.814;6.590;2022-08-01T02:08:24;100259.03;;;21.21;100.00
20145;BME280;10233;50.814;6.590;2022-08-01T02:09:26;100253.09;;;21.19;100.00
20145;BME280;10233;50.814;6.590;2022-08-01T02:10:29;100256.91;;;21.23;100.00
20145;BME280;10233;50.814;6.590;2022-08-01T02:11:31;100249.31;;;21.20;100.00
20145;BME280;10233;50.814;6.590;2022-08-01T02:12:35;100257.44;;;21.25;100.00
20145;BME280;10233;50.814;6.590;2022-08-01T02:13:38;100242.81;;;21.26;100.00
20145;BME280;10233;50.814;6.590;2022-08-01T02:14:40;100243.38;;;21.28;100.00
20145;BME280;10233;50.814;6.590;2022-08-01T02:15:44;100246.06;;;21.23;100.00
20145;BME280;10233;50.814;6.590;2022-08-01T02:16:49;100248.78;;;21.23;100.00
20145;BME280;10233;50.814;6.590;2022-08-01T02:17:50;100249.88;;;21.22;100.00
20145;BME280;10233;50.814;6.590;2022-08-01T02:18:51;100242.81;;;21.26;100.00
20145;BME280;10233;50.814;6.590;2022-08-01T02:19:53;100239.03;;;21.27;100.00
20145;BME280;10233;50.814;6.590;2022-08-01T02:20:55;100245.25;;;21.18;100.00
20145;BME280;10233;50.814;6.590;2022-08-01T02:22:01;100245.25;;;21.18;100.00
20145;BME280;10233;50.814;6.590;2022-08-01T02:23:11;100246.59;;;21.20;100.00
20145;BME280;10233;50.814;6.590;2022-08-01T02:24:21;100250.41;;;21.24;100.00
20145;BME280;10233;50.814;6.590;2022-08-01T02:25:46;100247.69;;;21.24;100.00
20145;BME280;10233;50.814;6.590;2022-08-01T02:26:50;100243.38;;;21.28;100.00
20145;BME280;10233;50.814;6.590;2022-08-01T02:28:09;100247.41;;;21.31;100.00
20145;BME280;10233;50.814;6.590;2022-08-01T02:29:15;100249.03;;;21.32;100.00
20145;BME280;10233;50.814;6.590;2022-08-01T02:30:17;100246.34;;;21.32;100.00
20145;BME280;10233;50.814;6.590;2022-08-01T02:31:20;100250.13;;;21.31;100.00
20145;BME280;10233;50.814;6.590;2022-08-01T02:32:27;100244.19;;;21.29;100.00
20145;BME280;10233;50.814;6.590;2022-08-01T02:33:36;100244.97;;;21.29;100.00
20145;BME280;10233;50.814;6.590;2022-08-01T02:34:38;100254.47;;;21.22;100.00
20145;BME280;10233;50.814;6.590;2022-08-01T02:35:41;100249.56;;;21.24;100.00
20145;BME280;10233;50.814;6.590;2022-08-01T02:36:44;100253.91;;;21.30;100.00
20145;BME280;10233;50.814;6.590;2022-08-01T02:37:47;100248.25;;;21.31;100.00
20145;BME280;10233;50.814;6.590;2022-08-01T02:38:48;100257.16;;;21.22;100.00
20145;BME280;10233;50.814;6.590;2022-08-01T02:39:52;100253.38;;;21.18;100.00
20145;BME280;10233;50.814;6.590;2022-08-01T02:40:56;100260.69;;;21.22;100.00
20145;BME280;10233;50.814;6.590;2022-08-01T02:42:00;100248.78;;;21.28;100.00
20145;BME280;10233;50.814;6.590;2022-08-01T02:43:05;100252.31;;;21.29;100.00
20145;BME280;10233;50.814;6.590;2022-08-01T02:44:07;100254.19;;;21.23;100.00
20145;BME280;10233;50.814;6.590;2022-08-01T02:45:10;100250.41;;;21.19;100.00
20145;BME280;10233;50.814;6.590;2022-08-01T02:46:17;100262.84;;;21.20;100.00
20145;BME280;10233;50.814;6.590;2022-08-01T02:47:20;100256.91;;;21.18;100.00
20145;BME280;10233;50.814;6.590;2022-08-01T02:48:23;100257.97;;;21.27;100.00
20145;BME280;10233;50.814;6.590;2022-08-01T02:49:26;100246.88;;;21.34;100.00
20145;BME280;10233;50.814;6.590;2022-08-01T02:50:30;100242.84;;;21.31;100.00
20145;BME280;10233;50.814;6.590;2022-08-01T02:51:33;100245.81;;;21.35;100.00
20145;BME280;10233;50.814;6.590;2022-08-01T02:52:35;100247.94;;;21.38;100.00
20145;BME280;10233;50.814;6.590;2022-08-01T02:53:38;100242.53;;;21.38;100.00
20145;BME280;10233;50.814;6.590;2022-08-01T02:54:43;100245.78;;;21.40;100.00
20145;BME280;10233;50.814;6.590;2022-08-01T02:55:46;100246.06;;;21.33;100.00
20145;BME280;10233;50.814;6.590;2022-08-01T02:56:48;100242.28;;;21.34;100.00
20145;BME280;10233;50.814;6.590;2022-08-01T02:57:51;100245.81;;;21.30;100.00
20145;BME280;10233;50.814;6.590;2022-08-01T02:58:54;100251.47;;;21.28;100.00
20145;BME280;10233;50.814;6.590;2022-08-01T02:59:55;100254.19;;;21.28;100.00
20145;BME280;10233;50.814;6.590;2022-08-01T03:00:59;100250.94;;;21.16;100.00
20145;BME280;10233;50.814;6.590;2022-08-01T03:02:01;100250.41;;;21.24;100.00
20145;BME280;10233;50.814;6.590;2022-08-01T03:03:06;100247.69;;;21.24;100.00
20145;BME280;10233;50.814;6.590;2022-08-01T03:04:07;100242.28;;;21.29;100.00
20145;BME280;10233;50.814;6.590;2022-08-01T03:05:10;100249.59;;;21.29;100.00
20145;BME280;10233;50.814;6.590;2022-08-01T03:06:12;100239.03;;;21.27;100.00
20145;BME280;10233;50.814;6.590;2022-08-01T03:07:15;100245.25;;;21.33;100.00
20145;BME280;10233;50.814;6.590;2022-08-01T03:08:17;100242.84;;;21.31;100.00
20145;BME280;10233;50.814;6.590;2022-08-01T03:09:18;100241.19;;;21.30;100.00
20145;BME280;10233;50.814;6.590;2022-08-01T03:10:19;100234.97;;;21.35;100.00
20145;BME280;10233;50.814;6.590;2022-08-01T03:11:22;100240.38;;;21.35;100.00
20145;BME280;10233;50.814;6.590;2022-08-01T03:12:27;100240.13;;;21.31;100.00
20145;BME280;10233;50.814;6.590;2022-08-01T03:13:30;100243.09;;;21.30;100.00
20145;BME280;10233;50.814;6.590;2022-08-01T03:14:35;100249.03;;;21.27;100.00
20145;BME280;10233;50.814;6.590;2022-08-01T03:15:38;100241.75;;;21.27;100.00
20145;BME280;10233;50.814;6.590;2022-08-01T03:16:42;100250.91;;;21.26;100.00
20145;BME280;10233;50.814;6.590;2022-08-01T03:17:45;100254.19;;;21.23;100.00
20145;BME280;10233;50.814;6.590;2022-08-01T03:18:48;100251.50;;;21.23;100.00
20145;BME280;10233;50.814;6.590;2022-08-01T03:19:49;100256.06;;;21.23;100.00
20145;BME280;10233;50.814;6.590;2022-08-01T03:20:50;100260.13;;;21.20;100.00
20145;BME280;10233;50.814;6.590;2022-08-01T03:21:53;100257.69;;;21.24;100.00
20145;BME280;10233;50.814;6.590;2022-08-01T03:22:56;100261.47;;;21.28;100.00
20145;BME280;10233;50.814;6.590;2022-08-01T03:24:00;100256.91;;;21.18;100.00
20145;BME280;10233;50.814;6.590;2022-08-01T03:25:01;100259.59;;;21.18;100.00
20145;BME280;10233;50.814;6.590;2022-08-01T03:26:03;100254.97;;;21.24;100.00
20145;BME280;10233;50.814;6.590;2022-08-01T03:27:06;100251.50;;;21.23;100.00
20145;BME280;10233;50.814;6.590;2022-08-01T03:28:08;100255.28;;;21.27;100.00
20145;BME280;10233;50.814;6.590;2022-08-01T03:29:20;100257.16;;;21.27;100.00
20145;BME280;10233;50.814;6.590;2022-08-01T03:30:23;100249.03;;;21.32;100.00
20145;BME280;10233;50.814;6.590;2022-08-01T03:31:25;100253.94;;;21.25;100.00
20145;BME280;10233;50.814;6.590;2022-08-01T03:32:27;100254.47;;;21.22;100.00
20145;BME280;10233;50.814;6.590;2022-08-01T03:33:29;100258.78;;;21.28;100.00
20145;BME280;10233;50.814;6.590;2022-08-01T03:34:29;100256.63;;;21.25;100.00
20145;BME280;10233;50.814;6.590;2022-08-01T03:35:54;100261.22;;;21.24;100.00
20145;BME280;10233;50.814;6.590;2022-08-01T03:37:17;100265.28;;;21.22;100.00
20145;BME280;10233;50.814;6.590;2022-08-01T03:38:23;100256.34;;;21.21;100.00
20145;BME280;10233;50.814;6.590;2022-08-01T03:39:42;100257.44;;;21.25;100.00
20145;BME280;10233;50.814;6.590;2022-08-01T03:40:47;100256.34;;;21.16;100.00
20145;BME280;10233;50.814;6.590;2022-08-01T03:41:54;100254.72;;;21.15;100.00
20145;BME280;10233;50.814;6.590;2022-08-01T03:43:02;100261.47;;;21.23;100.00
20145;BME280;10233;50.814;6.590;2022-08-01T03:44:16;100255.53;;;21.16;100.00
20145;BME280;10233;50.814;6.590;2022-08-01T03:45:30;100254.72;;;21.15;100.00
20145;BME280;10233;50.814;6.590;2022-08-01T03:46:45;100257.16;;;21.17;100.00
20145;BME280;10233;50.814;6.590;2022-08-01T03:47:47;100250.94;;;21.11;100.00
20145;BME280;10233;50.814;6.590;2022-08-01T03:48:50;100255.81;;;21.14;100.00
20145;BME280;10233;50.814;6.590;2022-08-01T03:49:54;100251.75;;;21.07;100.00
20145;BME280;10233;50.814;6.590;2022-08-01T03:50:57;100260.41;;;21.19;100.00
20145;BME280;10233;50.814;6.590;2022-08-01T03:52:01;100263.94;;;21.14;100.00
20145;BME280;10233;50.814;6.590;2022-08-01T03:53:03;100262.84;;;21.20;100.00
20145;BME280;10233;50.814;6.590;2022-08-01T03:54:10;100261.22;;;21.14;100.00
20145;BME280;10233;50.814;6.590;2022-08-01T03:55:12;100263.09;;;21.19;100.00
20145;BME280;10233;50.814;6.590;2022-08-01T03:56:18;100262.56;;;21.22;100.00
20145;BME280;10233;50.814;6.590;2022-08-01T03:57:19;100256.63;;;21.20;100.00
20145;BME280;10233;50.814;6.590;2022-08-01T03:58:21;100256.34;;;21.26;100.00
20145;BME280;10233;50.814;6.590;2022-08-01T03:59:22;100257.41;;;21.30;100.00
20145;BME280;10233;50.814;6.590;2022-08-01T04:00:23;100258.78;;;21.28;100.00
20145;BME280;10233;50.814;6.590;2022-08-01T04:01:24;100253.09;;;21.34;100.00
20145;BME280;10233;50.814;6.590;2022-08-01T04:02:26;100255.78;;;21.39;100.00
20145;BME280;10233;50.814;6.590;2022-08-01T04:03:27;100254.72;;;21.35;100.00
20145;BME280;10233;50.814;6.590;2022-08-01T04:04:28;100249.28;;;21.40;100.00
20145;BME280;10233;50.814;6.590;2022-08-01T04:05:29;100256.63;;;21.40;100.00
20145;BME280;10233;50.814;6.590;2022-08-01T04:06:29;100254.19;;;21.43;100.00
20145;BME280;10233;50.814;6.590;2022-08-01T04:07:33;100256.06;;;21.48;100.00
20145;BME280;10233;50.814;6.590;2022-08-01T04:08:40;100258.50;;;21.49;100.00
20145;BME280;10233;50.814;6.590;2022-08-01T04:09:41;100258.50;;;21.49;100.00
20145;BME280;10233;50.814;6.590;2022-08-01T04:10:42;100254.97;;;21.54;100.00
20145;BME280;10233;50.814;6.590;2022-08-01T04:11:43;100256.03;;;21.58;100.00
20145;BME280;10233;50.814;6.590;2022-08-01T04:12:43;100250.63;;;21.63;100.00
20145;BME280;10233;50.814;6.590;2022-08-01T04:13:44;100253.34;;;21.73;100.00
20145;BME280;10233;50.814;6.590;2022-08-01T04:14:45;100256.84;;;21.73;100.00
20145;BME280;10233;50.814;6.590;2022-08-01T04:15:45;100248.97;;;21.67;100.00
20145;BME280;10233;50.814;6.590;2022-08-01T04:16:46;100253.91;;;21.70;100.00
20145;BME280;10233;50.814;6.590;2022-08-01T04:17:47;100247.13;;;21.72;100.00
20145;BME280;10233;50.814;6.590;2022-08-01T04:18:47;100247.09;;;21.77;100.00
20145;BME280;10233;50.814;6.590;2022-08-01T04:19:48;100248.72;;;21.78;100.00
20145;BME280;10233;50.814;6.590;2022-08-01T04:20:48;100253.03;;;21.79;100.00
20145;BME280;10233;50.814;6.590;2022-08-01T04:21:49;100249.53;;;21.79;100.00
20145;BME280;10233;50.814;6.590;2022-08-01T04:22:52;100254.41;;;21.77;100.00
20145;BME280;10233;50.814;6.590;2022-08-01T04:23:54;100254.69;;;21.80;100.00
20145;BME280;10233;50.814;6.590;2022-08-01T04:24:57;100253.31;;;21.83;100.00
20145;BME280;10233;50.814;6.590;2022-08-01T04:26:02;100262.81;;;21.80;100.00
20145;BME280;10233;50.814;6.590;2022-08-01T04:27:07;100256.84;;;21.83;100.00
20145;BME280;10233;50.814;6.590;2022-08-01T04:28:12;100262.50;;;21.87;100.00
20145;BME280;10233;50.814;6.590;2022-08-01T04:29:19;100260.34;;;21.89;100.00
20145;BME280;10233;50.814;6.590;2022-08-01T04:30:25;100263.81;;;21.99;100.00
20145;BME280;10233;50.814;6.590;2022-08-01T04:31:27;100264.66;;;21.95;100.00
20145;BME280;10233;50.814;6.590;2022-08-01T04:32:33;100268.47;;;21.94;100.00
20145;BME280;10233;50.814;6.590;2022-08-01T04:33:34;100260.88;;;21.91;100.00
20145;BME280;10233;50.814;6.590;2022-08-01T04:34:38;100268.72;;;21.92;100.00
20145;BME280;10233;50.814;6.590;2022-08-01T04:35:41;100270.91;;;21.95;100.00
20145;BME280;10233;50.814;6.590;2022-08-01T04:36:43;100264.94;;;21.88;100.00
20145;BME280;10233;50.814;6.590;2022-08-01T04:37:50;100273.06;;;21.88;100.00
20145;BME280;10233;50.814;6.590;2022-08-01T04:38:55;100267.41;;;21.85;100.00
20145;BME280;10233;50.814;6.590;2022-08-01T04:39:58;100269.25;;;21.89;100.00
20145;BME280;10233;50.814;6.590;2022-08-01T04:41:00;100274.66;;;21.94;100.00
20145;BME280;10233;50.814;6.590;2022-08-01T04:42:04;100276.84;;;21.97;100.00
20145;BME280;10233;50.814;6.590;2022-08-01T04:43:05;100277.09;;;21.96;100.00
20145;BME280;10233;50.814;6.590;2022-08-01T04:44:06;100276.00;;;21.97;100.00
20145;BME280;10233;50.814;6.590;2022-08-01T04:45:08;100275.78;;;21.88;100.00
20145;BME280;10233;50.814;6.590;2022-08-01T04:46:10;100278.22;;;21.90;100.00
20145;BME280;10233;50.814;6.590;2022-08-01T04:47:11;100279.56;;;21.92;100.00
20145;BME280;10233;50.814;6.590;2022-08-01T04:48:13;100276.81;;;22.02;100.00
20145;BME280;10233;50.814;6.590;2022-08-01T04:49:18;100279.53;;;21.97;100.00
20145;BME280;10233;50.814;6.590;2022-08-01T04:50:18;100283.06;;;22.03;100.00
20145;BME280;10233;50.814;6.590;2022-08-01T04:51:22;100288.75;;;22.06;100.00
20145;BME280;10233;50.814;6.590;2022-08-01T04:52:22;100296.84;;;22.11;100.00
20145;BME280;10233;50.814;6.590;2022-08-01T04:53:23;100295.22;;;22.10;100.00
20145;BME280;10233;50.814;6.590;2022-08-01T04:54:25;100289.28;;;22.03;100.00
20145;BME280;10233;50.814;6.590;2022-08-01T04:55:26;100300.09;;;22.03;100.00
20145;BME280;10233;50.814;6.590;2022-08-01T04:56:26;100298.75;;;22.06;100.00
20145;BME280;10233;50.814;6.590;2022-08-01T04:57:27;100294.72;;;21.98;100.00
20145;BME280;10233;50.814;6.590;2022-08-01T04:58:27;100299.03;;;22.04;100.00
20145;BME280;10233;50.814;6.590;2022-08-01T04:59:39;100297.66;;;22.02;100.00
20145;BME280;10233;50.814;6.590;2022-08-01T05:00:42;100296.31;;;22.04;100.00
20145;BME280;10233;50.814;6.590;2022-08-01T05:01:48;100296.88;;;22.06;100.00
20145;BME280;10233;50.814;6.590;2022-08-01T05:02:48;100290.38;;;22.02;100.00
20145;BME280;10233;50.814;6.590;2022-08-01T05:03:49;100295.81;;;21.97;100.00
20145;BME280;10233;50.814;6.590;2022-08-01T05:04:49;100296.06;;;22.01;100.00
20145;BME280;10233;50.814;6.590;2022-08-01T05:05:50;100291.97;;;22.03;100.00
20145;BME280;10233;50.814;6.590;2022-08-01T05:06:50;100294.97;;;22.02;100.00
20145;BME280;10233;50.814;6.590;2022-08-01T05:07:51;100286.03;;;22.01;100.00
20145;BME280;10233;50.814;6.590;2022-08-01T05:08:51;100289.56;;;22.07;100.00
20145;BME280;10233;50.814;6.590;2022-08-01T05:09:51;100291.72;;;22.00;100.00
20145;BME280;10233;50.814;6.590;2022-08-01T05:10:52;100291.19;;;22.03;100.00
20145;BME280;10233;50.814;6.590;2022-08-01T05:11:53;100291.19;;;22.03;100.00
20145;BME280;10233;50.814;6.590;2022-08-01T05:12:53;100296.03;;;22.11;100.00
20145;BME280;10233;50.814;6.590;2022-08-01T05:13:54;100293.03;;;22.12;100.00
20145;BME280;10233;50.814;6.590;2022-08-01T05:14:54;100294.97;;;22.12;100.00
20145;BME280;10233;50.814;6.590;2022-08-01T05:15:55;100303.91;;;22.07;100.00
20145;BME280;10233;50.814;6.590;2022-08-01T05:16:56;100294.97;;;22.07;100.00
20145;BME280;10233;50.814;6.590;2022-08-01T05:17:56;100299.31;;;22.08;100.00
20145;BME280;10233;50.814;6.590;2022-08-01T05:18:57;100298.19;;;22.14;100.00
20145;BME280;10233;50.814;6.590;2022-08-01T05:19:57;100296.00;;;22.16;100.00
20145;BME280;10233;50.814;6.590;2022-08-01T05:20:58;100298.69;;;22.21;100.00
20145;BME280;10233;50.814;6.590;2022-08-01T05:21:59;100307.91;;;22.25;100.00
20145;BME280;10233;50.814;6.590;2022-08-01T05:23:01;100312.78;;;22.28;100.00
20145;BME280;10233;50.814;6.590;2022-08-01T05:24:02;100309.81;;;22.29;100.00
20145;BME280;10233;50.814;6.590;2022-08-01T05:25:03;100305.16;;;22.35;100.00
20145;BME280;10233;50.814;6.590;2022-08-01T05:26:05;100311.41;;;22.35;100.00
20145;BME280;10233;50.814;6.590;2022-08-01T05:27:05;100304.84;;;22.41;100.00
20145;BME280;10233;50.814;6.590;2022-08-01T05:28:07;100309.78;;;22.34;100.00
20145;BME280;10233;50.814;6.590;2022-08-01T05:29:08;100311.91;;;22.37;100.00
20145;BME280;10233;50.814;6.590;2022-08-01T05:30:09;100310.00;;;22.43;100.00
20145;BME280;10233;50.814;6.590;2022-08-01T05:31:10;100315.69;;;22.41;100.00
20145;BME280;10233;50.814;6.590;2022-08-01T05:32:10;100317.91;;;22.39;100.00
20145;BME280;10233;50.814;6.590;2022-08-01T05:33:11;100305.97;;;22.46;100.00
20145;BME280;10233;50.814;6.590;2022-08-01T05:34:11;100316.53;;;22.47;100.00
20145;BME280;10233;50.814;6.590;2022-08-01T05:35:12;100316.25;;;22.38;100.00
20145;BME280;10233;50.814;6.590;2022-08-01T05:36:12;100320.06;;;22.37;100.00